createdAt,value
2019-03-18T00:00:16.819Z,4.74
2019-03-18T00:01:16.840Z,4.76
2019-03-18T00:02:16.870Z,4.76
2019-03-18T00:03:16.889Z,4.69
2019-03-18T00:04:16.910Z,4.72
2019-03-18T00:05:16.933Z,4.66
2019-03-18T00:06:16.955Z,4.72
2019-03-18T00:07:16.980Z,4.61
2019-03-18T00:08:17.000Z,4.76
2019-03-18T00:09:17.037Z,4.75
2019-03-18T00:10:17.051Z,4.72
2019-03-18T00:11:17.072Z,4.71
2019-03-18T00:12:17.088Z,4.72
2019-03-18T00:13:17.115Z,4.64
2019-03-18T00:14:17.133Z,4.64
2019-03-18T00:15:17.158Z,4.69
2019-03-18T00:16:17.188Z,4.69
2019-03-18T00:17:17.271Z,4.66
2019-03-18T00:18:17.226Z,4.76
2019-03-18T00:19:17.246Z,4.74
2019-03-18T00:20:17.269Z,4.74
2019-03-18T00:21:17.296Z,4.69
2019-03-18T00:22:17.321Z,4.75
2019-03-18T00:23:17.338Z,4.75
2019-03-18T00:24:17.364Z,4.66
2019-03-18T00:25:17.383Z,4.68
2019-03-18T00:26:17.412Z,4.69
2019-03-18T00:27:17.429Z,4.69
2019-03-18T00:28:17.466Z,4.69
2019-03-18T00:29:17.476Z,4.68
2019-03-18T00:30:17.497Z,4.68
2019-03-18T00:31:17.517Z,4.74
2019-03-18T00:32:17.540Z,4.74
2019-03-18T00:33:17.638Z,4.65
2019-03-18T00:34:17.588Z,4.69
2019-03-18T00:35:17.610Z,4.71
2019-03-18T00:36:17.640Z,4.68
2019-03-18T00:37:17.655Z,4.66
2019-03-18T00:38:17.674Z,4.69
2019-03-18T00:39:17.699Z,4.66
2019-03-18T00:40:17.721Z,4.66
2019-03-18T00:41:17.746Z,4.64
2019-03-18T00:42:17.768Z,4.71
2019-03-18T00:43:17.791Z,4.71
2019-03-18T00:44:17.815Z,4.75
2019-03-18T00:45:17.835Z,4.76
2019-03-18T00:46:17.868Z,4.69
2019-03-18T00:47:17.881Z,4.66
2019-03-18T00:48:17.903Z,4.69
2019-03-18T00:49:17.924Z,4.69
2019-03-18T00:50:18.024Z,4.65
2019-03-18T00:51:17.967Z,4.68
2019-03-18T00:52:17.990Z,4.72
2019-03-18T00:53:18.016Z,4.68
2019-03-18T00:54:18.051Z,4.66
2019-03-18T00:55:18.060Z,4.69
2019-03-18T00:56:18.087Z,4.68
2019-03-18T00:57:18.104Z,4.69
2019-03-18T00:58:18.126Z,4.72
2019-03-18T00:59:18.150Z,4.71
2019-03-18T01:00:18.170Z,4.68
2019-03-18T01:01:18.194Z,4.68
2019-03-18T01:02:18.218Z,4.64
2019-03-18T01:03:18.243Z,4.68
2019-03-18T01:04:18.268Z,4.66
2019-03-18T01:05:18.285Z,4.69
2019-03-18T01:06:18.303Z,4.74
2019-03-18T01:07:18.343Z,4.66
2019-03-18T01:08:18.350Z,4.74
2019-03-18T01:09:18.376Z,4.71
2019-03-18T01:10:18.396Z,4.64
2019-03-18T01:11:18.420Z,4.66
2019-03-18T01:12:18.441Z,4.68
2019-03-18T01:13:18.475Z,4.75
2019-03-18T01:14:18.483Z,4.64
2019-03-18T01:15:28.002Z,4.64
2019-03-18T01:16:18.535Z,4.64
2019-03-18T01:17:18.552Z,4.66
2019-03-18T01:18:18.578Z,4.61
2019-03-18T01:19:18.598Z,4.69
2019-03-18T01:20:18.625Z,4.71
2019-03-18T01:21:18.646Z,4.72
2019-03-18T01:22:18.670Z,4.74
2019-03-18T01:23:18.692Z,4.78
2019-03-18T01:24:18.718Z,4.75
2019-03-18T01:25:18.733Z,4.71
2019-03-18T01:26:18.753Z,4.75
2019-03-18T01:27:18.777Z,4.75
2019-03-18T01:28:18.797Z,4.85
2019-03-18T01:29:18.822Z,4.88
2019-03-18T01:30:18.847Z,4.83
2019-03-18T01:31:18.872Z,4.87
2019-03-18T01:32:18.888Z,4.85
2019-03-18T01:33:18.911Z,4.85
2019-03-18T01:34:18.931Z,4.92
2019-03-18T01:35:19.007Z,4.85
2019-03-18T01:36:18.980Z,4.95
2019-03-18T01:37:19.018Z,4.94
2019-03-18T01:38:19.023Z,4.87
2019-03-18T01:39:19.055Z,4.92
2019-03-18T01:40:19.072Z,4.92
2019-03-18T01:41:19.096Z,4.98
2019-03-18T01:42:19.114Z,5.02
2019-03-18T01:43:19.135Z,4.97
2019-03-18T01:44:19.160Z,4.97
2019-03-18T01:45:19.183Z,4.92
2019-03-18T01:46:19.206Z,5.00
2019-03-18T01:47:19.226Z,4.92
2019-03-18T01:48:19.250Z,4.97
2019-03-18T01:49:19.272Z,4.95
2019-03-18T01:50:19.298Z,4.91
2019-03-18T01:51:19.321Z,4.95
2019-03-18T01:52:19.365Z,4.94
2019-03-18T01:53:19.364Z,4.94
2019-03-18T01:54:19.384Z,5.05
2019-03-18T01:55:19.406Z,4.98
2019-03-18T01:56:19.427Z,4.95
2019-03-18T01:57:19.462Z,4.97
2019-03-18T01:58:19.474Z,5.00
2019-03-18T01:59:19.497Z,4.97
2019-03-18T02:00:19.520Z,5.00
2019-03-18T02:01:19.544Z,5.03
2019-03-18T02:02:19.562Z,4.95
2019-03-18T02:03:19.585Z,5.02
2019-03-18T02:04:19.607Z,5.05
2019-03-18T02:05:19.639Z,4.98
2019-03-18T02:06:19.654Z,5.00
2019-03-18T02:07:19.678Z,5.10
2019-03-18T02:08:19.700Z,5.10
2019-03-18T02:09:19.808Z,5.08
2019-03-18T02:10:19.744Z,5.15
2019-03-18T02:11:19.768Z,5.23
2019-03-18T02:12:19.790Z,5.09
2019-03-18T02:13:19.816Z,5.10
2019-03-18T02:14:19.841Z,5.18
2019-03-18T02:15:19.858Z,5.09
2019-03-18T02:16:19.877Z,5.12
2019-03-18T02:17:19.903Z,5.09
2019-03-18T02:18:19.924Z,5.12
2019-03-18T02:19:19.946Z,5.06
2019-03-18T02:20:20.279Z,5.10
2019-03-18T02:21:19.999Z,5.05
2019-03-18T02:22:20.015Z,5.05
2019-03-18T02:23:20.037Z,5.00
2019-03-18T02:24:20.058Z,4.94
2019-03-18T02:25:20.089Z,4.97
2019-03-18T02:26:20.108Z,4.95
2019-03-18T02:27:20.132Z,4.95
2019-03-18T02:28:20.150Z,5.02
2019-03-18T02:29:20.188Z,4.97
2019-03-18T02:30:20.235Z,4.95
2019-03-18T02:31:20.218Z,4.92
2019-03-18T02:32:20.254Z,4.88
2019-03-18T02:33:20.286Z,4.90
2019-03-18T02:34:20.284Z,4.90
2019-03-18T02:35:20.413Z,4.95
2019-03-18T02:36:20.338Z,4.92
2019-03-18T02:37:20.360Z,4.94
2019-03-18T02:38:20.377Z,4.95
2019-03-18T02:39:20.398Z,4.92
2019-03-18T02:40:20.426Z,4.90
2019-03-18T02:41:20.507Z,4.90
2019-03-18T02:42:20.469Z,4.92
2019-03-18T02:43:20.489Z,4.92
2019-03-18T02:44:20.512Z,4.95
2019-03-18T02:45:24.338Z,4.95
2019-03-18T02:46:20.574Z,4.94
2019-03-18T02:47:20.579Z,4.94
2019-03-18T02:48:20.604Z,4.95
2019-03-18T02:49:20.623Z,4.88
2019-03-18T02:50:20.645Z,4.87
2019-03-18T02:51:20.667Z,4.85
2019-03-18T02:52:20.691Z,4.90
2019-03-18T02:53:20.720Z,4.88
2019-03-18T02:54:20.734Z,4.90
2019-03-18T02:55:20.759Z,4.85
2019-03-18T02:56:20.780Z,4.92
2019-03-18T02:57:20.809Z,4.85
2019-03-18T02:58:20.837Z,4.88
2019-03-18T02:59:20.849Z,4.87
2019-03-18T03:00:20.877Z,4.88
2019-03-18T03:01:20.908Z,4.83
2019-03-18T03:02:20.917Z,4.83
2019-03-18T03:03:20.938Z,4.85
2019-03-18T03:04:20.968Z,4.84
2019-03-18T03:05:20.986Z,4.85
2019-03-18T03:06:21.009Z,4.83
2019-03-18T03:07:21.028Z,4.79
2019-03-18T03:08:21.054Z,4.84
2019-03-18T03:09:21.074Z,4.92
2019-03-18T03:10:21.104Z,4.87
2019-03-18T03:11:21.124Z,4.87
2019-03-18T03:12:21.140Z,4.88
2019-03-18T03:13:21.177Z,4.88
2019-03-18T03:14:21.187Z,4.85
2019-03-18T03:15:21.214Z,4.91
2019-03-18T03:16:26.980Z,4.92
2019-03-18T03:17:21.941Z,4.92
2019-03-18T03:18:21.282Z,4.92
2019-03-18T03:19:21.309Z,5.00
2019-03-18T03:20:21.320Z,4.97
2019-03-18T03:21:21.372Z,5.00
2019-03-18T03:22:21.369Z,5.00
2019-03-18T03:23:21.399Z,4.97
2019-03-18T03:24:21.721Z,5.02
2019-03-18T03:25:24.716Z,4.95
2019-03-18T03:26:21.459Z,4.92
2019-03-18T03:27:21.486Z,5.12
2019-03-18T03:28:21.505Z,4.94
2019-03-18T03:29:21.742Z,5.00
2019-03-18T03:30:21.556Z,4.97
2019-03-18T03:31:21.570Z,4.98
2019-03-18T03:32:21.595Z,4.94
2019-03-18T03:33:21.633Z,5.09
2019-03-18T03:34:21.652Z,5.10
2019-03-18T03:35:21.663Z,5.00
2019-03-18T03:36:21.686Z,5.13
2019-03-18T03:37:21.707Z,5.10
2019-03-18T03:38:21.730Z,5.05
2019-03-18T03:39:21.773Z,5.16
2019-03-18T03:40:21.781Z,5.13
2019-03-18T03:41:21.799Z,5.12
2019-03-18T03:42:21.826Z,5.15
2019-03-18T03:43:21.841Z,5.15
2019-03-18T03:44:21.872Z,5.05
2019-03-18T03:45:21.904Z,5.12
2019-03-18T03:46:21.910Z,5.10
2019-03-18T03:47:21.945Z,5.13
2019-03-18T03:48:21.958Z,5.13
2019-03-18T03:49:21.980Z,5.09
2019-03-18T03:50:22.109Z,5.10
2019-03-18T03:51:22.024Z,5.12
2019-03-18T03:52:22.046Z,5.06
2019-03-18T03:53:22.072Z,5.16
2019-03-18T03:54:22.097Z,5.08
2019-03-18T03:55:22.114Z,5.09
2019-03-18T03:56:22.146Z,5.15
2019-03-18T03:57:22.160Z,5.10
2019-03-18T03:58:22.192Z,5.09
2019-03-18T03:59:22.212Z,5.10
2019-03-18T04:00:22.230Z,5.13
2019-03-18T04:01:22.254Z,5.15
2019-03-18T04:02:22.281Z,5.10
2019-03-18T04:03:37.310Z,5.05
2019-03-18T04:04:22.336Z,5.15
2019-03-18T04:05:22.343Z,5.10
2019-03-18T04:06:22.366Z,5.08
2019-03-18T04:07:22.389Z,5.06
2019-03-18T04:08:22.413Z,5.05
2019-03-18T04:09:22.438Z,5.08
2019-03-18T04:10:22.479Z,5.06
2019-03-18T04:11:22.481Z,5.02
2019-03-18T04:12:22.502Z,5.03
2019-03-18T04:13:22.523Z,5.09
2019-03-18T04:14:22.551Z,4.95
2019-03-18T04:15:22.573Z,5.03
2019-03-18T04:16:22.602Z,5.06
2019-03-18T04:17:22.616Z,5.13
2019-03-18T04:18:22.640Z,5.02
2019-03-18T04:19:22.659Z,5.12
2019-03-18T04:20:22.682Z,4.94
2019-03-18T04:21:22.707Z,4.97
2019-03-18T04:22:22.730Z,5.02
2019-03-18T04:23:22.749Z,4.97
2019-03-18T04:24:22.774Z,4.94
2019-03-18T04:25:22.816Z,4.92
2019-03-18T04:26:22.818Z,4.98
2019-03-18T04:27:24.765Z,5.03
2019-03-18T04:28:22.864Z,5.00
2019-03-18T04:29:22.895Z,5.03
2019-03-18T04:30:22.914Z,5.03
2019-03-18T04:31:22.938Z,4.98
2019-03-18T04:32:22.956Z,4.98
2019-03-18T04:33:22.986Z,5.05
2019-03-18T04:34:23.011Z,5.02
2019-03-18T04:35:23.033Z,5.09
2019-03-18T04:36:23.042Z,5.16
2019-03-18T04:37:23.068Z,5.13
2019-03-18T04:38:23.089Z,5.09
2019-03-18T04:39:23.119Z,5.12
2019-03-18T04:40:23.199Z,5.10
2019-03-18T04:41:23.160Z,5.09
2019-03-18T04:42:23.180Z,5.18
2019-03-18T04:43:23.200Z,5.15
2019-03-18T04:44:23.225Z,5.09
2019-03-18T04:45:23.251Z,5.09
2019-03-18T04:46:23.273Z,5.12
2019-03-18T04:47:23.291Z,5.12
2019-03-18T04:48:23.315Z,5.10
2019-03-18T04:49:23.335Z,5.15
2019-03-18T04:50:23.360Z,5.13
2019-03-18T04:51:23.384Z,5.09
2019-03-18T04:52:23.406Z,5.16
2019-03-18T04:53:23.429Z,5.08
2019-03-18T04:54:23.453Z,5.08
2019-03-18T04:55:23.585Z,5.10
2019-03-18T04:56:23.501Z,5.21
2019-03-18T04:57:23.520Z,5.08
2019-03-18T04:58:23.540Z,5.09
2019-03-18T04:59:23.564Z,5.13
2019-03-18T05:00:23.612Z,5.21
2019-03-18T05:01:23.610Z,5.16
2019-03-18T05:02:23.632Z,5.20
2019-03-18T05:03:23.655Z,5.16
2019-03-18T05:04:23.676Z,5.15
2019-03-18T05:05:23.800Z,5.16
2019-03-18T05:06:23.728Z,5.10
2019-03-18T05:07:23.746Z,5.15
2019-03-18T05:08:23.768Z,5.10
2019-03-18T05:09:23.791Z,5.13
2019-03-18T05:10:23.832Z,4.95
2019-03-18T05:11:23.837Z,4.94
2019-03-18T05:12:23.868Z,4.97
2019-03-18T05:13:26.437Z,4.95
2019-03-18T05:14:23.906Z,4.94
2019-03-18T05:15:23.930Z,4.94
2019-03-18T05:16:23.949Z,4.91
2019-03-18T05:17:26.953Z,4.91
2019-03-18T05:18:24.010Z,4.90
2019-03-18T05:19:24.019Z,4.95
2019-03-18T05:20:24.042Z,4.90
2019-03-18T05:21:24.064Z,5.02
2019-03-18T05:22:24.091Z,5.00
2019-03-18T05:23:24.137Z,5.02
2019-03-18T05:24:24.132Z,5.00
2019-03-18T05:25:24.152Z,4.95
2019-03-18T05:26:24.177Z,4.98
2019-03-18T05:27:24.202Z,4.94
2019-03-18T05:28:24.243Z,5.06
2019-03-18T05:29:24.248Z,4.94
2019-03-18T05:30:24.267Z,4.94
2019-03-18T05:31:24.288Z,4.94
2019-03-18T05:32:24.318Z,5.02
2019-03-18T05:33:24.373Z,5.02
2019-03-18T05:34:24.384Z,4.95
2019-03-18T05:35:24.378Z,5.05
2019-03-18T05:36:24.402Z,4.98
2019-03-18T05:37:24.426Z,4.91
2019-03-18T05:38:24.448Z,4.97
2019-03-18T05:39:24.495Z,4.92
2019-03-18T05:40:24.492Z,4.87
2019-03-18T05:41:24.517Z,4.90
2019-03-18T05:42:24.545Z,4.90
2019-03-18T05:43:24.559Z,4.88
2019-03-18T05:44:24.619Z,4.92
2019-03-18T05:45:24.605Z,4.92
2019-03-18T05:46:24.630Z,4.98
2019-03-18T05:47:24.652Z,4.90
2019-03-18T05:48:24.674Z,4.97
2019-03-18T05:49:24.712Z,4.95
2019-03-18T05:50:24.717Z,4.95
2019-03-18T05:51:24.745Z,5.02
2019-03-18T05:52:24.763Z,4.94
2019-03-18T05:53:24.785Z,4.92
2019-03-18T05:54:24.815Z,4.97
2019-03-18T05:55:24.831Z,4.95
2019-03-18T05:56:24.856Z,5.06
2019-03-18T05:57:26.173Z,5.06
2019-03-18T05:58:24.901Z,5.06
2019-03-18T05:59:24.921Z,5.05
2019-03-18T06:00:24.949Z,5.02
2019-03-18T06:01:24.996Z,5.10
2019-03-18T06:02:24.995Z,5.08
2019-03-18T06:03:25.012Z,5.06
2019-03-18T06:04:25.057Z,5.10
2019-03-18T06:05:25.060Z,5.12
2019-03-18T06:06:25.083Z,5.16
2019-03-18T06:07:25.137Z,5.16
2019-03-18T06:08:25.128Z,5.16
2019-03-18T06:09:25.148Z,5.15
2019-03-18T06:10:25.179Z,5.20
2019-03-18T06:11:25.195Z,5.26
2019-03-18T06:12:25.220Z,5.23
2019-03-18T06:13:25.240Z,5.31
2019-03-18T06:14:25.279Z,5.34
2019-03-18T06:15:25.284Z,5.37
2019-03-18T06:16:25.308Z,5.31
2019-03-18T06:17:25.332Z,5.30
2019-03-18T06:18:25.350Z,5.36
2019-03-18T06:19:25.376Z,5.39
2019-03-18T06:20:25.400Z,5.36
2019-03-18T06:21:25.921Z,5.37
2019-03-18T06:22:25.450Z,5.45
2019-03-18T06:23:25.466Z,5.42
2019-03-18T06:24:25.490Z,5.48
2019-03-18T06:25:25.512Z,5.44
2019-03-18T06:26:25.535Z,5.48
2019-03-18T06:27:25.563Z,5.42
2019-03-18T06:28:25.579Z,5.45
2019-03-18T06:29:27.519Z,5.45
2019-03-18T06:30:25.628Z,5.54
2019-03-18T06:31:25.650Z,5.44
2019-03-18T06:32:25.673Z,5.54
2019-03-18T06:33:25.695Z,5.44
2019-03-18T06:34:25.721Z,5.51
2019-03-18T06:35:25.741Z,5.46
2019-03-18T06:36:25.762Z,5.51
2019-03-18T06:37:25.787Z,5.46
2019-03-18T06:38:25.807Z,5.55
2019-03-18T06:39:25.836Z,5.57
2019-03-18T06:40:25.853Z,5.64
2019-03-18T06:41:25.882Z,5.60
2019-03-18T06:42:25.902Z,5.60
2019-03-18T06:43:25.921Z,5.62
2019-03-18T06:44:25.945Z,5.62
2019-03-18T06:45:25.970Z,5.66
2019-03-18T06:46:25.991Z,5.59
2019-03-18T06:47:26.020Z,5.60
2019-03-18T06:48:26.056Z,5.70
2019-03-18T06:49:26.063Z,5.73
2019-03-18T06:50:26.083Z,5.72
2019-03-18T06:51:26.708Z,5.77
2019-03-18T06:52:26.730Z,5.78
2019-03-18T06:53:26.753Z,5.84
2019-03-18T06:54:26.727Z,5.82
2019-03-18T06:55:26.698Z,5.89
2019-03-18T06:56:26.723Z,5.85
2019-03-18T06:57:26.247Z,5.82
2019-03-18T06:58:26.273Z,5.87
2019-03-18T06:59:26.292Z,5.82
2019-03-18T07:00:26.723Z,5.87
2019-03-18T07:01:26.739Z,5.82
2019-03-18T07:02:26.711Z,6.00
2019-03-18T07:03:26.684Z,5.99
2019-03-18T07:04:26.710Z,5.89
2019-03-18T07:05:26.683Z,6.03
2019-03-18T07:06:26.455Z,6.25
2019-03-18T07:07:26.729Z,6.18
2019-03-18T07:08:26.706Z,6.26
2019-03-18T07:09:26.728Z,6.18
2019-03-18T07:10:26.748Z,6.20
2019-03-18T07:11:26.720Z,6.24
2019-03-18T07:12:26.745Z,6.14
2019-03-18T07:13:26.777Z,6.13
2019-03-18T07:14:26.640Z,6.07
2019-03-18T07:15:26.714Z,6.14
2019-03-18T07:16:26.696Z,6.14
2019-03-18T07:17:26.720Z,6.20
2019-03-18T07:18:26.743Z,6.25
2019-03-18T07:19:26.767Z,6.28
2019-03-18T07:20:26.792Z,6.20
2019-03-18T07:21:26.814Z,6.07
2019-03-18T07:22:26.829Z,6.26
2019-03-18T07:23:26.852Z,6.18
2019-03-18T07:24:26.883Z,6.34
2019-03-18T07:25:26.899Z,6.33
2019-03-18T07:26:26.924Z,6.31
2019-03-18T07:27:26.948Z,6.40
2019-03-18T07:28:26.972Z,6.52
2019-03-18T07:29:27.000Z,6.47
2019-03-18T07:30:27.017Z,6.61
2019-03-18T07:31:27.041Z,6.68
2019-03-18T07:32:27.071Z,6.57
2019-03-18T07:33:27.091Z,6.57
2019-03-18T07:34:27.117Z,6.51
2019-03-18T07:35:27.138Z,6.54
2019-03-18T07:36:27.161Z,6.57
2019-03-18T07:37:27.184Z,6.73
2019-03-18T07:38:27.707Z,6.70
2019-03-18T07:39:27.733Z,6.72
2019-03-18T07:40:27.707Z,6.70
2019-03-18T07:41:27.285Z,6.72
2019-03-18T07:42:27.710Z,6.76
2019-03-18T07:43:27.730Z,6.75
2019-03-18T07:44:27.699Z,6.86
2019-03-18T07:45:27.725Z,6.85
2019-03-18T07:46:27.699Z,6.98
2019-03-18T07:47:27.722Z,7.12
2019-03-18T07:48:31.149Z,7.12
2019-03-18T07:49:27.469Z,7.73
2019-03-18T07:50:27.491Z,8.31
2019-03-18T07:51:27.516Z,8.22
2019-03-18T07:52:27.747Z,7.48
2019-03-18T07:53:27.715Z,7.31
2019-03-18T07:54:32.566Z,6.97
2019-03-18T07:55:27.715Z,7.00
2019-03-18T07:56:27.737Z,7.01
2019-03-18T07:57:27.712Z,7.04
2019-03-18T07:58:27.688Z,7.64
2019-03-18T07:59:27.763Z,7.95
2019-03-18T08:00:27.739Z,8.04
2019-03-18T08:01:27.764Z,8.36
2019-03-18T08:02:27.785Z,8.74
2019-03-18T08:03:27.812Z,9.23
2019-03-18T08:04:36.880Z,8.61
2019-03-18T08:05:27.860Z,8.04
2019-03-18T08:06:27.887Z,7.64
2019-03-18T08:07:27.918Z,7.27
2019-03-18T08:08:28.047Z,7.21
2019-03-18T08:09:27.963Z,7.13
2019-03-18T08:10:27.986Z,7.09
2019-03-18T08:11:28.014Z,7.05
2019-03-18T08:12:28.038Z,7.18
2019-03-18T08:13:28.065Z,7.09
2019-03-18T08:14:28.089Z,7.16
2019-03-18T08:15:28.115Z,7.22
2019-03-18T08:16:28.138Z,7.31
2019-03-18T08:17:28.166Z,7.16
2019-03-18T08:18:28.188Z,7.22
2019-03-18T08:19:28.214Z,7.11
2019-03-18T08:20:28.242Z,7.21
2019-03-18T08:21:28.264Z,7.18
2019-03-18T08:22:28.289Z,7.11
2019-03-18T08:23:28.315Z,7.15
2019-03-18T08:24:28.338Z,7.12
2019-03-18T08:25:28.370Z,7.19
2019-03-18T08:26:28.389Z,7.36
2019-03-18T08:27:28.415Z,7.31
2019-03-18T08:28:28.446Z,7.49
2019-03-18T08:29:28.465Z,7.44
2019-03-18T08:30:28.489Z,7.47
2019-03-18T08:31:28.513Z,7.44
2019-03-18T08:32:28.539Z,7.37
2019-03-18T08:33:28.563Z,7.40
2019-03-18T08:34:28.585Z,7.51
2019-03-18T08:35:28.610Z,7.48
2019-03-18T08:36:28.635Z,7.45
2019-03-18T08:37:28.660Z,7.47
2019-03-18T08:38:28.686Z,7.63
2019-03-18T08:39:28.708Z,8.01
2019-03-18T08:40:28.741Z,7.88
2019-03-18T08:41:28.758Z,7.77
2019-03-18T08:42:28.783Z,7.86
2019-03-18T08:43:28.814Z,7.86
2019-03-18T08:44:28.834Z,7.95
2019-03-18T08:45:28.859Z,7.89
2019-03-18T08:46:28.886Z,7.83
2019-03-18T08:47:28.907Z,7.83
2019-03-18T08:48:28.929Z,7.98
2019-03-18T08:49:28.957Z,7.78
2019-03-18T08:50:28.978Z,7.83
2019-03-18T08:51:29.004Z,7.92
2019-03-18T08:52:29.028Z,7.93
2019-03-18T08:53:29.053Z,8.54
2019-03-18T08:54:29.079Z,8.74
2019-03-18T08:55:29.105Z,8.69
2019-03-18T08:56:29.725Z,9.30
2019-03-18T08:57:29.152Z,8.68
2019-03-18T08:58:29.178Z,8.60
2019-03-18T08:59:29.706Z,8.57
2019-03-18T09:00:29.305Z,8.98
2019-03-18T09:01:29.753Z,9.59
2019-03-18T09:02:29.729Z,9.41
2019-03-18T09:03:29.755Z,9.04
2019-03-18T09:04:29.735Z,8.95
2019-03-18T09:05:29.760Z,9.29
2019-03-18T09:06:30.446Z,9.74
2019-03-18T09:07:29.406Z,10.05
2019-03-18T09:08:29.431Z,9.82
2019-03-18T09:09:29.460Z,10.07
2019-03-18T09:10:29.481Z,9.75
2019-03-18T09:11:29.515Z,9.62
2019-03-18T09:12:29.536Z,9.35
2019-03-18T09:13:32.019Z,8.94
2019-03-18T09:14:29.588Z,8.68
2019-03-18T09:15:29.618Z,8.62
2019-03-18T09:16:29.640Z,8.53
2019-03-18T09:17:29.668Z,8.67
2019-03-18T09:18:29.690Z,8.64
2019-03-18T09:19:29.719Z,8.68
2019-03-18T09:20:29.746Z,8.97
2019-03-18T09:21:29.838Z,9.99
2019-03-18T09:22:29.795Z,10.79
2019-03-18T09:23:29.824Z,11.88
2019-03-18T09:24:29.856Z,12.52
2019-03-18T09:25:29.884Z,12.95
2019-03-18T09:26:29.901Z,12.45
2019-03-18T09:27:29.928Z,12.28
2019-03-18T09:28:29.969Z,12.37
2019-03-18T09:29:29.983Z,12.61
2019-03-18T09:30:30.011Z,12.34
2019-03-18T09:31:30.082Z,11.59
2019-03-18T09:32:30.066Z,11.68
2019-03-18T09:33:30.137Z,11.89
2019-03-18T09:34:30.126Z,11.27
2019-03-18T09:35:30.156Z,10.80
2019-03-18T09:36:30.178Z,10.91
2019-03-18T09:37:30.206Z,11.10
2019-03-18T09:38:30.235Z,10.47
2019-03-18T09:39:30.263Z,11.20
2019-03-18T09:40:30.291Z,10.52
2019-03-18T09:41:30.319Z,10.03
2019-03-18T09:42:30.355Z,9.85
2019-03-18T09:43:30.377Z,9.78
2019-03-18T09:44:30.408Z,10.51
2019-03-18T09:45:30.436Z,11.86
2019-03-18T09:46:30.462Z,12.53
2019-03-18T09:47:30.491Z,12.28
2019-03-18T09:48:30.521Z,11.56
2019-03-18T09:49:30.550Z,11.33
2019-03-18T09:50:30.573Z,10.72
2019-03-18T09:51:30.605Z,10.15
2019-03-18T09:52:30.634Z,10.10
2019-03-18T09:53:30.660Z,10.28
2019-03-18T09:54:30.701Z,10.63
2019-03-18T09:55:30.725Z,10.83
2019-03-18T09:56:30.748Z,11.26
2019-03-18T09:57:30.778Z,11.05
2019-03-18T09:58:30.805Z,11.79
2019-03-18T09:59:30.939Z,12.18
2019-03-18T10:00:30.887Z,13.09
2019-03-18T10:01:30.893Z,14.05
2019-03-18T10:02:30.996Z,14.86
2019-03-18T10:03:30.954Z,15.43
2019-03-18T10:12:06.868Z,14.48
2019-03-18T10:13:06.901Z,14.45
2019-03-18T10:14:06.934Z,14.44
2019-03-18T10:15:06.966Z,14.60
2019-03-18T10:16:06.990Z,14.98
2019-03-18T10:17:09.959Z,14.31
2019-03-18T10:18:07.053Z,14.21
2019-03-18T10:19:07.082Z,14.64
2019-03-18T10:20:07.118Z,14.94
2019-03-18T10:21:07.146Z,14.93
2019-03-18T10:22:07.195Z,14.57
2019-03-18T10:23:07.210Z,14.63
2019-03-18T10:24:07.251Z,15.33
2019-03-18T10:25:07.274Z,15.18
2019-03-18T10:26:07.310Z,14.83
2019-03-18T10:27:07.393Z,15.33
2019-03-18T10:28:07.372Z,15.67
2019-03-18T10:29:07.406Z,16.16
2019-03-18T10:30:07.446Z,15.56
2019-03-18T10:31:07.471Z,15.59
2019-03-18T10:32:07.511Z,14.60
2019-03-18T10:33:07.539Z,13.44
2019-03-18T10:34:07.575Z,14.44
2019-03-18T10:35:07.607Z,15.45
2019-03-18T10:36:07.641Z,14.95
2019-03-18T10:37:07.744Z,14.41
2019-03-18T10:38:07.717Z,15.01
2019-03-18T10:39:07.743Z,14.60
2019-03-18T10:40:07.773Z,15.20
2019-03-18T10:41:07.817Z,15.45
2019-03-18T10:42:07.845Z,15.41
2019-03-18T10:43:07.882Z,15.41
2019-03-18T10:44:07.918Z,14.06
2019-03-18T10:45:07.940Z,13.68
2019-03-18T10:46:07.974Z,14.19
2019-03-18T10:47:08.007Z,14.39
2019-03-18T10:48:08.040Z,14.09
2019-03-18T10:49:08.085Z,13.48
2019-03-18T10:50:08.108Z,13.11
2019-03-18T10:51:08.142Z,12.98
2019-03-18T10:52:08.173Z,12.77
2019-03-18T10:53:50.803Z,12.45
2019-03-18T10:54:50.825Z,11.88
2019-03-18T10:55:50.827Z,11.53
2019-03-18T10:56:50.859Z,11.26
2019-03-18T10:57:50.891Z,10.91
2019-03-18T10:58:50.927Z,10.84
2019-03-18T10:59:50.954Z,10.77
2019-03-18T11:00:50.982Z,10.67
2019-03-18T11:01:51.016Z,10.65
2019-03-18T11:02:51.044Z,10.70
2019-03-18T11:03:51.076Z,10.67
2019-03-18T11:04:51.104Z,10.63
2019-03-18T11:05:51.138Z,10.57
2019-03-18T11:06:51.233Z,10.58
2019-03-18T11:07:51.977Z,10.38
2019-03-18T11:08:51.224Z,10.39
2019-03-18T11:09:51.251Z,10.35
2019-03-18T11:10:51.281Z,10.33
2019-03-18T11:11:51.311Z,10.38
2019-03-18T11:12:51.337Z,10.38
2019-03-18T11:13:51.372Z,10.54
2019-03-18T11:14:51.395Z,10.51
2019-03-18T11:15:51.424Z,10.32
2019-03-18T11:16:52.606Z,10.25
2019-03-18T11:17:51.486Z,10.10
2019-03-18T11:18:51.508Z,10.02
2019-03-18T11:19:58.236Z,9.99
2019-03-18T11:20:51.563Z,9.99
2019-03-18T11:21:51.591Z,9.90
2019-03-18T11:22:51.626Z,9.90
2019-03-18T11:23:51.651Z,9.84
2019-03-18T11:24:51.685Z,9.88
2019-03-18T11:26:44.277Z,9.75
2019-03-18T11:27:44.308Z,9.60
2019-03-18T11:28:44.332Z,9.45
2019-03-18T11:29:44.359Z,9.47
2019-03-18T11:30:44.390Z,9.42
2019-03-18T11:31:44.410Z,9.17
2019-03-18T11:32:44.439Z,8.71
2019-03-18T11:33:44.464Z,8.61
2019-03-18T11:34:44.496Z,8.47
2019-03-18T11:35:44.517Z,8.28
2019-03-18T11:36:44.547Z,8.25
2019-03-18T11:37:44.570Z,8.19
2019-03-18T11:38:44.602Z,8.14
2019-03-18T11:39:44.626Z,7.98
2019-03-18T11:40:44.652Z,7.75
2019-03-18T11:41:44.678Z,7.73
2019-03-18T11:42:44.701Z,7.71
2019-03-18T11:43:44.730Z,7.59
2019-03-18T11:44:44.755Z,7.64
2019-03-18T11:45:44.782Z,7.48
2019-03-18T11:46:44.810Z,7.49
2019-03-18T11:47:44.838Z,7.54
2019-03-18T11:48:44.856Z,7.68
2019-03-18T11:49:44.884Z,7.74
2019-03-18T11:50:44.913Z,7.78
2019-03-18T11:51:44.933Z,7.88
2019-03-18T11:52:44.961Z,7.82
2019-03-18T11:53:44.984Z,7.99
2019-03-18T11:54:45.009Z,8.01
2019-03-18T11:55:45.044Z,8.11
2019-03-18T11:56:45.063Z,8.16
2019-03-18T11:57:45.095Z,8.01
2019-03-18T11:58:45.120Z,7.74
2019-03-18T11:59:46.832Z,7.73
2019-03-18T12:00:45.166Z,7.77
2019-03-18T12:01:45.188Z,7.63
2019-03-18T12:02:45.213Z,7.68
2019-03-18T12:03:45.284Z,7.75
2019-03-18T12:04:45.264Z,7.98
2019-03-18T12:05:45.292Z,8.17
2019-03-18T12:06:45.314Z,8.36
2019-03-18T12:07:45.342Z,8.71
2019-03-18T12:08:45.367Z,8.62
2019-03-18T12:09:45.390Z,8.71
2019-03-18T12:10:45.418Z,8.92
2019-03-18T12:11:45.441Z,9.35
2019-03-18T12:12:45.469Z,9.96
2019-03-18T12:13:45.494Z,10.72
2019-03-18T12:14:45.517Z,11.46
2019-03-18T12:15:45.542Z,11.98
2019-03-18T12:16:45.580Z,12.73
2019-03-18T12:17:45.597Z,13.57
2019-03-18T12:18:45.622Z,14.02
2019-03-18T12:19:45.655Z,13.79
2019-03-18T12:20:45.678Z,13.81
2019-03-18T12:21:45.702Z,13.78
2019-03-18T12:22:45.729Z,14.03
2019-03-18T12:23:45.764Z,14.45
2019-03-18T12:24:45.785Z,14.66
2019-03-18T12:25:45.814Z,14.80
2019-03-18T12:26:45.942Z,14.66
2019-03-18T12:27:45.872Z,14.63
2019-03-18T12:28:45.899Z,14.27
2019-03-18T12:29:45.933Z,14.06
2019-03-18T12:30:46.045Z,14.44
2019-03-18T12:31:45.991Z,14.83
2019-03-18T12:32:46.020Z,14.89
2019-03-18T12:33:46.051Z,14.86
2019-03-18T12:34:46.076Z,14.59
2019-03-18T12:35:46.119Z,14.39
2019-03-18T12:36:46.141Z,14.70
2019-03-18T12:37:46.167Z,15.05
2019-03-18T12:38:46.205Z,15.16
2019-03-18T12:39:46.230Z,15.23
2019-03-18T12:40:46.259Z,15.37
2019-03-18T12:41:46.292Z,15.40
2019-03-18T12:42:46.331Z,15.71
2019-03-18T12:43:46.354Z,15.25
2019-03-18T12:44:46.401Z,15.45
2019-03-18T12:45:46.415Z,15.63
2019-03-18T12:46:46.447Z,15.71
2019-03-18T12:47:46.492Z,15.40
2019-03-18T12:48:46.509Z,14.89
2019-03-18T12:49:46.547Z,14.70
2019-03-18T12:50:55.826Z,14.86
2019-03-18T12:51:46.604Z,14.95
2019-03-18T12:52:46.636Z,14.26
2019-03-18T12:53:46.664Z,13.95
2019-03-18T12:54:46.696Z,14.05
2019-03-18T12:55:46.731Z,13.54
2019-03-18T12:56:46.762Z,13.73
2019-03-18T12:57:46.792Z,13.16
2019-03-18T12:58:46.822Z,12.84
2019-03-18T12:59:46.854Z,12.76
2019-03-18T13:00:46.888Z,12.74
2019-03-18T13:01:46.916Z,12.77
2019-03-18T13:02:46.952Z,12.92
2019-03-18T13:03:46.975Z,13.75
2019-03-18T13:04:47.006Z,14.69
2019-03-18T13:05:47.039Z,15.43
2019-03-18T13:06:47.078Z,16.10
2019-03-18T13:07:47.099Z,16.76
2019-03-18T13:08:47.129Z,16.52
2019-03-18T13:09:47.158Z,16.42
2019-03-18T13:10:47.197Z,15.96
2019-03-18T13:11:47.224Z,15.84
2019-03-18T13:12:47.252Z,15.60
2019-03-18T13:13:47.283Z,15.07
2019-03-18T13:14:47.322Z,14.87
2019-03-18T13:15:47.344Z,14.56
2019-03-18T13:16:47.375Z,14.33
2019-03-18T13:17:47.406Z,13.63
2019-03-18T13:18:47.434Z,13.27
2019-03-18T13:19:47.467Z,12.29
2019-03-18T13:20:47.498Z,11.94
2019-03-18T13:21:47.527Z,11.86